Time;durP1;ratioP1;P1;durP2;ratioP2;P2;SDS_P1;SDS_P2;PMS_P1;PMS_P2;Temp;Humidity;BMP_temperature;BMP_pressure;BME280_temperature;BME280_humidity;BME280_pressure;Samples;Min_cycle;Max_cycle;Signal;HPM_P1;HPM_P2
2023/07/23 00:00:41;;;;;;;19.52;5.47;;;;;;;;;;4848919;29;20070;-71
2023/07/23 00:03:26;;;;;;;27.15;6.03;;;;;;;;;;4841408;29;20202;-71
2023/07/23 00:05:52;;;;;;;26.70;5.57;;;;;;;;;;4846106;29;20050;-73
2023/07/23 00:08:19;;;;;;;29.10;6.50;;;;;;;;;;4849978;29;20509;-72
2023/07/23 00:10:45;;;;;;;28.30;6.25;;;;;;;;;;4848810;29;20065;-72
2023/07/23 00:13:11;;;;;;;20.42;5.70;;;;;;;;;;4852430;29;20093;-73
2023/07/23 00:15:38;;;;;;;27.50;5.80;;;;;;;;;;4855722;29;20060;-74
2023/07/23 00:18:03;;;;;;;25.52;6.90;;;;;;;;;;4843776;29;20054;-71
2023/07/23 00:20:29;;;;;;;25.17;5.90;;;;;;;;;;4844833;29;20122;-71
2023/07/23 00:22:55;;;;;;;26.45;6.10;;;;;;;;;;4846628;29;20503;-72
2023/07/23 00:25:21;;;;;;;32.50;6.85;;;;;;;;;;4844285;29;20061;-73
2023/07/23 00:27:47;;;;;;;20.42;6.05;;;;;;;;;;4852838;29;20121;-74
2023/07/23 00:30:13;;;;;;;31.17;6.40;;;;;;;;;;4844538;29;20054;-71
2023/07/23 00:32:39;;;;;;;20.88;5.95;;;;;;;;;;4854586;29;20101;-70
2023/07/23 00:35:06;;;;;;;20.52;5.78;;;;;;;;;;4851888;29;20069;-71
2023/07/23 00:37:36;;;;;;;30.15;6.43;;;;;;;;;;4855720;29;20046;-69
2023/07/23 00:40:03;;;;;;;29.15;6.78;;;;;;;;;;4842009;29;20050;-72
2023/07/23 00:42:31;;;;;;;23.55;5.95;;;;;;;;;;4832011;29;20050;-72
2023/07/23 00:44:59;;;;;;;32.08;6.25;;;;;;;;;;4825283;29;20049;-70
2023/07/23 00:47:25;;;;;;;28.17;5.80;;;;;;;;;;4847963;29;20049;-71
2023/07/23 00:49:55;;;;;;;26.30;6.15;;;;;;;;;;4850326;29;20053;-73
2023/07/23 00:52:21;;;;;;;24.08;6.72;;;;;;;;;;4849995;29;20102;-73
2023/07/23 00:54:49;;;;;;;20.58;5.95;;;;;;;;;;4851850;29;20056;-73
2023/07/23 00:57:16;;;;;;;20.05;5.70;;;;;;;;;;4841485;29;20054;-72
2023/07/23 00:59:45;;;;;;;22.08;5.35;;;;;;;;;;4841715;29;20062;-74
2023/07/23 01:02:11;;;;;;;23.88;6.68;;;;;;;;;;4842687;29;20049;-71
2023/07/23 01:04:37;;;;;;;24.98;6.40;;;;;;;;;;4846707;29;20112;-72
2023/07/23 01:07:07;;;;;;;31.92;6.78;;;;;;;;;;4840624;29;20077;-72
2023/07/23 01:09:34;;;;;;;19.50;5.90;;;;;;;;;;4852105;29;20045;-71
2023/07/23 01:12:02;;;;;;;22.23;5.93;;;;;;;;;;4842643;29;20502;-72
2023/07/23 01:14:29;;;;;;;23.20;5.22;;;;;;;;;;4851740;29;20534;-71
2023/07/23 01:16:57;;;;;;;23.58;5.90;;;;;;;;;;4850182;29;20141;-70
2023/07/23 01:19:26;;;;;;;26.25;5.45;;;;;;;;;;4828173;29;20070;-70
2023/07/23 01:22:10;;;;;;;17.70;5.60;;;;;;;;;;4846854;29;20060;-71
2023/07/23 01:24:36;;;;;;;25.00;5.53;;;;;;;;;;4831144;29;20053;-70
2023/07/23 01:27:03;;;;;;;32.08;6.43;;;;;;;;;;4850605;29;20046;-71
2023/07/23 01:29:32;;;;;;;22.63;5.75;;;;;;;;;;4845769;29;20050;-69
2023/07/23 01:31:59;;;;;;;20.60;5.32;;;;;;;;;;4846684;29;20419;-70
2023/07/23 01:34:29;;;;;;;24.10;6.05;;;;;;;;;;4856284;29;20057;-70
2023/07/23 01:36:57;;;;;;;26.88;6.28;;;;;;;;;;4845936;29;20042;-71
2023/07/23 01:39:23;;;;;;;24.55;6.07;;;;;;;;;;4848102;29;20064;-71
2023/07/23 01:41:49;;;;;;;21.55;4.93;;;;;;;;;;4856213;29;20058;-70
2023/07/23 01:44:19;;;;;;;27.40;6.10;;;;;;;;;;4843647;29;20667;-71
2023/07/23 01:46:46;;;;;;;25.52;5.65;;;;;;;;;;4844274;29;20114;-70
2023/07/23 01:49:13;;;;;;;22.85;6.07;;;;;;;;;;4849237;29;20045;-70
2023/07/23 01:51:40;;;;;;;14.43;4.25;;;;;;;;;;4846860;29;20083;-70
2023/07/23 01:54:06;;;;;;;25.48;5.93;;;;;;;;;;4849038;29;20046;-72
2023/07/23 01:56:32;;;;;;;27.30;5.80;;;;;;;;;;4852643;29;20061;-72
2023/07/23 01:59:04;;;;;;;21.00;5.28;;;;;;;;;;4844771;29;20061;-72
2023/07/23 02:01:30;;;;;;;26.77;5.90;;;;;;;;;;4844438;29;20151;-71
2023/07/23 02:03:57;;;;;;;14.95;4.13;;;;;;;;;;4833738;29;20125;-71
2023/07/23 02:06:23;;;;;;;18.58;5.85;;;;;;;;;;4849797;29;20057;-71
2023/07/23 02:08:49;;;;;;;30.23;5.95;;;;;;;;;;4850766;29;20482;-72
2023/07/23 02:11:15;;;;;;;20.02;5.40;;;;;;;;;;4850165;29;20048;-71
2023/07/23 02:13:44;;;;;;;28.00;6.03;;;;;;;;;;4847068;29;20053;-71
2023/07/23 02:16:18;;;;;;;24.55;5.45;;;;;;;;;;4847956;29;20199;-72
2023/07/23 02:18:44;;;;;;;23.02;6.25;;;;;;;;;;4845829;29;20049;-72
2023/07/23 02:21:10;;;;;;;23.20;5.38;;;;;;;;;;4856371;29;20045;-71
2023/07/23 02:23:36;;;;;;;24.90;5.32;;;;;;;;;;4853487;29;20072;-71
2023/07/23 02:26:02;;;;;;;22.73;4.72;;;;;;;;;;4825187;29;20912;-71
2023/07/23 02:28:28;;;;;;;18.13;5.07;;;;;;;;;;4852034;29;20510;-70
2023/07/23 02:30:58;;;;;;;23.08;5.47;;;;;;;;;;4853788;29;20050;-70
2023/07/23 02:33:24;;;;;;;21.65;5.03;;;;;;;;;;4858813;29;20133;-70
2023/07/23 02:35:50;;;;;;;22.67;5.32;;;;;;;;;;4852878;29;20045;-70
2023/07/23 02:38:17;;;;;;;19.80;5.45;;;;;;;;;;4850537;29;20053;-71
2023/07/23 02:40:44;;;;;;;24.08;5.50;;;;;;;;;;4853468;29;20125;-71
2023/07/23 02:43:12;;;;;;;22.70;5.78;;;;;;;;;;4858439;29;20490;-71
2023/07/23 02:45:39;;;;;;;20.63;4.63;;;;;;;;;;4851113;29;20049;-70
2023/07/23 02:48:06;;;;;;;26.73;5.97;;;;;;;;;;4842864;29;20467;-71
2023/07/23 02:50:32;;;;;;;25.95;5.60;;;;;;;;;;4857356;29;20054;-69
2023/07/23 02:52:58;;;;;;;20.10;5.70;;;;;;;;;;4849286;29;20053;-70
2023/07/23 02:55:25;;;;;;;26.38;6.00;;;;;;;;;;4843373;29;20053;-70
2023/07/23 02:57:51;;;;;;;25.00;5.97;;;;;;;;;;4850735;29;20061;-70
2023/07/23 03:00:20;;;;;;;24.00;5.43;;;;;;;;;;4843165;29;20065;-70
2023/07/23 03:02:47;;;;;;;23.92;5.68;;;;;;;;;;4844532;29;20061;-70
2023/07/23 03:05:14;;;;;;;21.02;5.10;;;;;;;;;;4848918;29;20049;-69
2023/07/23 03:07:40;;;;;;;26.08;5.82;;;;;;;;;;4850907;29;20050;-70
2023/07/23 03:10:06;;;;;;;18.67;5.05;;;;;;;;;;4847385;29;21887;-69
2023/07/23 03:12:33;;;;;;;22.65;4.93;;;;;;;;;;4855447;29;20062;-72
2023/07/23 03:15:00;;;;;;;19.55;5.10;;;;;;;;;;4852338;29;20049;-71
2023/07/23 03:17:26;;;;;;;22.83;5.40;;;;;;;;;;4852610;29;20057;-71
2023/07/23 03:19:52;;;;;;;24.05;5.75;;;;;;;;;;4844148;29;20054;-71
2023/07/23 03:22:19;;;;;;;26.88;5.40;;;;;;;;;;4852796;29;20042;-69
2023/07/23 03:24:46;;;;;;;21.10;5.47;;;;;;;;;;4847227;29;20052;-71
2023/07/23 03:27:12;;;;;;;22.17;5.28;;;;;;;;;;4819589;29;20054;-69
2023/07/23 03:29:38;;;;;;;16.58;4.90;;;;;;;;;;4851332;29;20054;-71
2023/07/23 03:32:05;;;;;;;21.73;5.38;;;;;;;;;;4835119;29;20059;-70
2023/07/23 03:34:31;;;;;;;23.67;5.85;;;;;;;;;;4854626;29;20506;-70
2023/07/23 03:36:57;;;;;;;25.42;5.40;;;;;;;;;;4852127;29;20046;-71
2023/07/23 03:39:23;;;;;;;15.65;4.30;;;;;;;;;;4853705;29;20396;-71
2023/07/23 03:41:50;;;;;;;28.98;5.97;;;;;;;;;;4855538;29;20076;-71
2023/07/23 03:44:16;;;;;;;19.63;5.32;;;;;;;;;;4829060;29;20053;-70
2023/07/23 03:46:58;;;;;;;22.13;5.10;;;;;;;;;;4856551;29;20053;-70
2023/07/23 03:49:23;;;;;;;26.40;5.70;;;;;;;;;;4832422;29;20057;-70
2023/07/23 03:51:50;;;;;;;20.88;5.43;;;;;;;;;;4852245;29;20061;-70
2023/07/23 03:54:15;;;;;;;14.90;4.68;;;;;;;;;;4848166;29;20041;-73
2023/07/23 03:56:43;;;;;;;15.77;4.90;;;;;;;;;;4845694;29;20057;-71
2023/07/23 03:59:09;;;;;;;23.63;5.85;;;;;;;;;;4856188;29;22481;-70
2023/07/23 04:01:36;;;;;;;18.45;5.07;;;;;;;;;;4852181;29;20142;-71
2023/07/23 04:04:02;;;;;;;20.90;5.18;;;;;;;;;;4846064;29;20414;-70
2023/07/23 04:06:28;;;;;;;18.33;4.38;;;;;;;;;;4850715;29;20053;-71
2023/07/23 04:08:54;;;;;;;25.52;5.20;;;;;;;;;;4843696;29;20060;-70
2023/07/23 04:11:20;;;;;;;16.90;4.75;;;;;;;;;;4849313;29;20149;-70
2023/07/23 04:13:48;;;;;;;18.40;5.03;;;;;;;;;;4849010;29;20046;-70
2023/07/23 04:16:14;;;;;;;15.05;4.38;;;;;;;;;;4855976;29;20049;-70
2023/07/23 04:18:47;;;;;;;19.55;5.20;;;;;;;;;;4849786;29;20121;-70
2023/07/23 04:21:24;;;;;;;23.58;5.63;;;;;;;;;;4845122;29;20064;-71
2023/07/23 04:23:51;;;;;;;19.20;4.68;;;;;;;;;;4855045;29;20064;-70
2023/07/23 04:26:18;;;;;;;24.42;5.65;;;;;;;;;;4856221;29;20062;-68
2023/07/23 04:28:45;;;;;;;22.38;5.15;;;;;;;;;;4832084;29;20060;-70
2023/07/23 04:31:11;;;;;;;28.27;6.10;;;;;;;;;;4854097;29;20521;-70
2023/07/23 04:33:39;;;;;;;29.50;6.20;;;;;;;;;;4852838;29;20553;-71
2023/07/23 04:36:07;;;;;;;22.27;5.57;;;;;;;;;;4854174;29;20053;-70
2023/07/23 04:38:33;;;;;;;20.15;6.30;;;;;;;;;;4849696;29;20050;-69
2023/07/23 04:40:59;;;;;;;19.92;5.55;;;;;;;;;;4850430;29;20109;-70
2023/07/23 04:43:26;;;;;;;28.27;5.97;;;;;;;;;;4848249;29;20058;-71
2023/07/23 04:45:52;;;;;;;28.40;5.82;;;;;;;;;;4846785;29;20150;-70
2023/07/23 04:48:18;;;;;;;22.05;6.22;;;;;;;;;;4846714;29;20478;-70
2023/07/23 04:50:44;;;;;;;22.15;5.55;;;;;;;;;;4840468;29;20057;-71
2023/07/23 04:53:10;;;;;;;27.00;6.18;;;;;;;;;;4826242;29;20388;-69
2023/07/23 04:55:36;;;;;;;27.92;6.70;;;;;;;;;;4838065;29;20430;-70
2023/07/23 04:58:02;;;;;;;23.25;6.70;;;;;;;;;;4848221;29;20086;-71
2023/07/23 05:00:29;;;;;;;27.85;6.22;;;;;;;;;;4852222;29;20056;-70
2023/07/23 05:02:57;;;;;;;28.30;6.72;;;;;;;;;;4845281;29;20115;-70
2023/07/23 05:05:24;;;;;;;26.15;6.03;;;;;;;;;;4830038;29;20566;-69
2023/07/23 05:07:50;;;;;;;26.60;5.82;;;;;;;;;;4842647;29;20057;-72
2023/07/23 05:10:16;;;;;;;21.85;6.78;;;;;;;;;;4843644;29;20612;-70
2023/07/23 05:12:42;;;;;;;22.98;5.95;;;;;;;;;;4848630;29;20060;-69
2023/07/23 05:15:17;;;;;;;22.88;5.93;;;;;;;;;;4847590;29;20057;-70
2023/07/23 05:17:43;;;;;;;17.95;5.80;;;;;;;;;;4853753;29;20046;-70
2023/07/23 05:20:09;;;;;;;23.65;6.15;;;;;;;;;;4849901;29;20087;-70
2023/07/23 05:22:39;;;;;;;22.80;6.05;;;;;;;;;;4833373;29;20491;-69
2023/07/23 05:25:06;;;;;;;23.20;6.53;;;;;;;;;;4849700;29;22006;-70
2023/07/23 05:27:32;;;;;;;30.88;6.80;;;;;;;;;;4842542;29;20056;-72
2023/07/23 05:29:58;;;;;;;27.63;6.68;;;;;;;;;;4839248;29;20502;-72
2023/07/23 05:32:24;;;;;;;26.70;6.60;;;;;;;;;;4846030;29;20061;-70
2023/07/23 05:34:53;;;;;;;24.48;6.57;;;;;;;;;;4844684;29;20058;-69
2023/07/23 05:37:19;;;;;;;27.25;6.85;;;;;;;;;;4842066;29;20525;-69
2023/07/23 05:39:48;;;;;;;34.55;7.20;;;;;;;;;;4844240;29;20054;-69
2023/07/23 05:42:14;;;;;;;21.17;6.80;;;;;;;;;;4847037;29;20079;-70
2023/07/23 05:44:41;;;;;;;29.60;7.00;;;;;;;;;;4844001;29;20068;-70
2023/07/23 05:47:07;;;;;;;26.05;7.53;;;;;;;;;;4849186;29;20054;-70
2023/07/23 05:49:33;;;;;;;21.88;6.05;;;;;;;;;;4852058;29;20054;-69
2023/07/23 05:51:59;;;;;;;21.30;6.65;;;;;;;;;;4845912;29;20061;-70
2023/07/23 05:54:26;;;;;;;27.90;6.63;;;;;;;;;;4841210;29;20056;-71
2023/07/23 05:56:52;;;;;;;37.67;7.28;;;;;;;;;;4822258;29;20062;-70
2023/07/23 05:59:19;;;;;;;19.33;5.65;;;;;;;;;;4825643;29;20068;-70
2023/07/23 06:01:45;;;;;;;21.40;5.75;;;;;;;;;;4843643;29;20046;-70
2023/07/23 06:04:11;;;;;;;24.60;6.85;;;;;;;;;;4842705;29;20611;-69
2023/07/23 06:06:37;;;;;;;26.67;6.18;;;;;;;;;;4838566;29;20053;-71
2023/07/23 06:09:06;;;;;;;24.48;6.55;;;;;;;;;;4847772;29;20441;-70
2023/07/23 06:11:32;;;;;;;29.58;7.28;;;;;;;;;;4842800;29;20053;-70
2023/07/23 06:14:00;;;;;;;34.70;7.55;;;;;;;;;;4846189;29;20097;-70
2023/07/23 06:16:26;;;;;;;26.80;6.57;;;;;;;;;;4845349;29;20053;-70
2023/07/23 06:18:52;;;;;;;23.27;6.57;;;;;;;;;;4848366;29;20053;-71
2023/07/23 06:21:18;;;;;;;21.00;6.30;;;;;;;;;;4848274;29;20117;-70
2023/07/23 06:23:44;;;;;;;21.52;5.75;;;;;;;;;;4847764;29;20110;-70
2023/07/23 06:26:11;;;;;;;30.30;7.18;;;;;;;;;;4847809;29;20049;-71
2023/07/23 06:28:37;;;;;;;24.92;6.28;;;;;;;;;;4847663;29;20061;-69
2023/07/23 06:31:03;;;;;;;24.80;6.53;;;;;;;;;;4848033;29;20053;-72
2023/07/23 06:33:29;;;;;;;17.77;5.80;;;;;;;;;;4845371;29;20096;-69
2023/07/23 06:35:55;;;;;;;20.45;6.75;;;;;;;;;;4849506;29;20057;-72
2023/07/23 06:38:21;;;;;;;22.20;5.78;;;;;;;;;;4849163;29;20101;-70
2023/07/23 06:40:48;;;;;;;22.55;6.22;;;;;;;;;;4830095;29;20049;-71
2023/07/23 06:43:16;;;;;;;31.75;7.28;;;;;;;;;;4847365;29;20419;-69
2023/07/23 06:45:43;;;;;;;25.40;6.60;;;;;;;;;;4848551;29;20098;-71
2023/07/23 06:48:49;;;;;;;25.83;7.18;;;;;;;;;;4835253;29;20053;-74
2023/07/23 06:52:30;;;;;;;25.77;6.75;;;;;;;;;;4847580;29;20061;-71
2023/07/23 06:56:16;;;;;;;24.52;6.63;;;;;;;;;;4846269;29;20045;-72
2023/07/23 06:59:56;;;;;;;23.00;6.95;;;;;;;;;;4842600;29;20053;-71
2023/07/23 07:03:37;;;;;;;23.10;7.28;;;;;;;;;;4844877;29;20054;-72
2023/07/23 07:07:18;;;;;;;21.17;6.68;;;;;;;;;;4844293;29;20052;-71
2023/07/23 07:10:18;;;;;;;23.42;6.95;;;;;;;;;;4841185;29;20515;-70
2023/07/23 07:12:44;;;;;;;24.63;5.55;;;;;;;;;;4835900;29;20068;-72
2023/07/23 07:15:12;;;;;;;16.85;5.47;;;;;;;;;;4854547;29;20049;-68
2023/07/23 07:17:39;;;;;;;23.63;5.65;;;;;;;;;;4844121;29;20062;-71
2023/07/23 07:20:05;;;;;;;27.10;6.38;;;;;;;;;;4862085;29;20137;-72
2023/07/23 07:22:32;;;;;;;25.25;6.97;;;;;;;;;;4849310;29;20148;-70
2023/07/23 07:24:59;;;;;;;20.30;5.72;;;;;;;;;;4844185;29;20118;-70
2023/07/23 07:27:25;;;;;;;24.42;6.40;;;;;;;;;;4848401;29;20068;-70
2023/07/23 07:29:51;;;;;;;21.27;5.95;;;;;;;;;;4857069;29;20049;-71
2023/07/23 07:32:19;;;;;;;22.45;6.05;;;;;;;;;;4846045;29;20053;-70
2023/07/23 07:34:44;;;;;;;20.77;7.53;;;;;;;;;;4856696;29;20391;-69
2023/07/23 07:37:11;;;;;;;23.55;5.85;;;;;;;;;;4851564;29;20081;-71
2023/07/23 07:39:37;;;;;;;22.35;5.80;;;;;;;;;;4855547;29;20077;-71
2023/07/23 07:42:03;;;;;;;22.55;5.97;;;;;;;;;;4851648;29;20112;-72
2023/07/23 07:44:29;;;;;;;26.33;5.90;;;;;;;;;;4857801;29;20113;-70
2023/07/23 07:46:58;;;;;;;18.25;5.30;;;;;;;;;;4853136;29;20066;-70
2023/07/23 07:49:24;;;;;;;19.42;5.72;;;;;;;;;;4858000;29;20065;-70
2023/07/23 07:51:50;;;;;;;19.05;5.65;;;;;;;;;;4850453;29;22097;-71
2023/07/23 07:54:16;;;;;;;19.27;5.68;;;;;;;;;;4848708;29;20038;-70
2023/07/23 07:56:43;;;;;;;19.60;5.22;;;;;;;;;;4826781;29;20570;-69
2023/07/23 07:59:13;;;;;;;23.05;6.07;;;;;;;;;;4853826;29;20102;-69
2023/07/23 08:01:40;;;;;;;19.45;4.90;;;;;;;;;;4848495;29;20092;-68
2023/07/23 08:04:10;;;;;;;19.77;6.05;;;;;;;;;;4858092;29;20968;-72
2023/07/23 08:06:38;;;;;;;21.40;5.55;;;;;;;;;;4852739;29;20058;-69
2023/07/23 08:09:04;;;;;;;22.52;6.38;;;;;;;;;;4851473;29;20063;-74
2023/07/23 08:11:31;;;;;;;23.23;6.82;;;;;;;;;;4836749;29;20053;-69
2023/07/23 08:13:58;;;;;;;21.17;5.80;;;;;;;;;;4843892;29;20446;-66
2023/07/23 08:16:24;;;;;;;20.98;6.28;;;;;;;;;;4846790;29;20088;-65
2023/07/23 08:19:29;;;;;;;20.65;5.72;;;;;;;;;;4840742;29;20050;-68
2023/07/23 08:22:24;;;;;;;21.95;5.40;;;;;;;;;;4852481;29;20064;-71
2023/07/23 08:24:50;;;;;;;25.52;6.55;;;;;;;;;;4852519;29;20422;-69
2023/07/23 08:27:21;;;;;;;25.73;6.00;;;;;;;;;;4845132;29;20068;-68
2023/07/23 08:29:48;;;;;;;16.83;5.88;;;;;;;;;;4847307;29;20061;-68
2023/07/23 08:32:19;;;;;;;16.52;4.88;;;;;;;;;;4849440;29;20081;-71
2023/07/23 08:34:46;;;;;;;16.48;4.88;;;;;;;;;;4842301;29;20137;-67
2023/07/23 08:37:12;;;;;;;22.60;5.53;;;;;;;;;;4845140;29;20045;-67
2023/07/23 08:39:41;;;;;;;17.00;5.70;;;;;;;;;;4852499;29;20841;-70
2023/07/23 08:42:14;;;;;;;21.10;5.57;;;;;;;;;;4836865;29;20419;-71
2023/07/23 08:44:55;;;;;;;27.33;6.60;;;;;;;;;;4825109;29;20057;-72
2023/07/23 08:47:22;;;;;;;27.25;6.15;;;;;;;;;;4842342;29;20064;-70
2023/07/23 08:49:47;;;;;;;24.27;5.72;;;;;;;;;;4837777;29;20061;-69
2023/07/23 08:52:15;;;;;;;19.15;5.03;;;;;;;;;;4833145;29;20128;-70
2023/07/23 08:54:41;;;;;;;13.93;4.78;;;;;;;;;;4824785;29;20054;-68
2023/07/23 08:57:09;;;;;;;18.88;5.50;;;;;;;;;;4832067;29;20141;-70
2023/07/23 08:59:39;;;;;;;23.63;5.70;;;;;;;;;;4836228;29;20056;-70
2023/07/23 09:02:09;;;;;;;21.83;5.18;;;;;;;;;;4833459;29;20042;-69
2023/07/23 09:04:35;;;;;;;17.75;5.13;;;;;;;;;;4841315;29;20050;-70
2023/07/23 09:07:02;;;;;;;14.30;4.43;;;;;;;;;;4831414;29;20528;-68
2023/07/23 09:09:30;;;;;;;20.02;5.65;;;;;;;;;;4850710;29;20056;-67
2023/07/23 09:11:56;;;;;;;18.95;4.90;;;;;;;;;;4838861;29;20042;-68
2023/07/23 09:14:21;;;;;;;19.15;5.95;;;;;;;;;;4840526;29;20057;-69
2023/07/23 09:16:49;;;;;;;16.83;5.15;;;;;;;;;;4820924;29;20049;-70
2023/07/23 09:19:23;;;;;;;20.77;5.95;;;;;;;;;;4839454;29;20076;-74
2023/07/23 09:21:49;;;;;;;14.50;5.03;;;;;;;;;;4842296;29;20458;-64
2023/07/23 09:24:16;;;;;;;19.40;5.88;;;;;;;;;;4849956;29;20079;-71
2023/07/23 09:26:43;;;;;;;14.32;4.40;;;;;;;;;;4845203;29;20396;-69
2023/07/23 09:29:11;;;;;;;25.13;6.00;;;;;;;;;;4854576;29;20096;-69
2023/07/23 09:31:42;;;;;;;21.58;5.57;;;;;;;;;;4855118;29;20525;-69
2023/07/23 09:34:08;;;;;;;24.35;6.22;;;;;;;;;;4832033;29;20071;-73
2023/07/23 09:36:36;;;;;;;21.90;5.38;;;;;;;;;;4852703;29;20053;-71
2023/07/23 09:39:05;;;;;;;17.15;4.82;;;;;;;;;;4858463;29;20078;-71
2023/07/23 09:41:36;;;;;;;19.00;5.45;;;;;;;;;;4821615;29;20060;-71
2023/07/23 09:44:08;;;;;;;17.83;5.03;;;;;;;;;;4846384;29;20045;-70
2023/07/23 09:46:43;;;;;;;25.13;6.03;;;;;;;;;;4850874;29;20058;-70
2023/07/23 09:49:09;;;;;;;21.90;4.85;;;;;;;;;;4837638;29;20494;-69
2023/07/23 09:51:37;;;;;;;17.40;4.90;;;;;;;;;;4858867;29;20054;-69
2023/07/23 09:54:04;;;;;;;18.25;5.35;;;;;;;;;;4853409;29;20049;-70
2023/07/23 09:56:51;;;;;;;21.65;4.63;;;;;;;;;;4850133;29;20050;-70
2023/07/23 09:59:19;;;;;;;18.13;5.13;;;;;;;;;;4850301;29;20060;-70
2023/07/23 10:01:46;;;;;;;21.55;5.47;;;;;;;;;;4846847;29;20053;-73
2023/07/23 10:04:16;;;;;;;19.10;4.75;;;;;;;;;;4852995;29;20097;-70
2023/07/23 10:06:43;;;;;;;19.50;4.88;;;;;;;;;;4853130;29;20114;-69
2023/07/23 10:09:11;;;;;;;17.25;4.78;;;;;;;;;;4856462;29;20049;-69
2023/07/23 10:11:37;;;;;;;13.18;4.43;;;;;;;;;;4848366;29;20045;-71
2023/07/23 10:14:03;;;;;;;15.80;4.70;;;;;;;;;;4851866;29;20057;-70
2023/07/23 10:16:37;;;;;;;22.20;5.30;;;;;;;;;;4855236;29;20055;-71
2023/07/23 10:19:08;;;;;;;16.05;4.40;;;;;;;;;;4854229;29;20083;-71
2023/07/23 10:21:36;;;;;;;16.63;4.35;;;;;;;;;;4832984;29;20061;-71
2023/07/23 10:24:04;;;;;;;16.65;4.70;;;;;;;;;;4855452;29;20049;-72
2023/07/23 10:26:39;;;;;;;21.60;5.28;;;;;;;;;;4847070;29;20137;-71
2023/07/23 10:29:18;;;;;;;14.68;4.13;;;;;;;;;;4858839;29;20196;-71
2023/07/23 10:31:45;;;;;;;18.63;5.05;;;;;;;;;;4840957;29;20062;-70
2023/07/23 10:34:23;;;;;;;17.85;4.72;;;;;;;;;;4849956;29;20410;-71
2023/07/23 10:37:11;;;;;;;16.67;5.15;;;;;;;;;;4849074;29;20041;-72
2023/07/23 10:39:42;;;;;;;18.70;4.43;;;;;;;;;;4848370;29;20553;-72
2023/07/23 10:42:08;;;;;;;14.15;4.28;;;;;;;;;;4854231;29;20061;-72
2023/07/23 10:44:38;;;;;;;14.10;4.65;;;;;;;;;;4858293;29;20061;-70
2023/07/23 10:47:32;;;;;;;16.50;4.65;;;;;;;;;;4855203;29;20046;-70
2023/07/23 10:50:16;;;;;;;17.15;4.47;;;;;;;;;;4845240;29;20129;-73
2023/07/23 10:52:49;;;;;;;16.77;4.55;;;;;;;;;;4839657;29;20061;-72
2023/07/23 10:55:39;;;;;;;17.38;5.15;;;;;;;;;;4851734;29;20038;-71
2023/07/23 10:58:14;;;;;;;22.67;4.82;;;;;;;;;;4851041;29;20507;-70
2023/07/23 11:00:47;;;;;;;15.00;5.03;;;;;;;;;;4846150;29;20470;-71
2023/07/23 11:03:18;;;;;;;19.98;5.47;;;;;;;;;;4857251;29;20061;-71
2023/07/23 11:05:45;;;;;;;21.27;5.28;;;;;;;;;;4850809;29;20056;-70
2023/07/23 11:08:20;;;;;;;17.85;5.00;;;;;;;;;;4845312;29;20046;-72
2023/07/23 11:10:59;;;;;;;17.35;4.32;;;;;;;;;;4851307;29;20053;-70
2023/07/23 11:13:34;;;;;;;15.40;4.50;;;;;;;;;;4856161;29;20065;-72
2023/07/23 11:16:00;;;;;;;18.83;4.28;;;;;;;;;;4856206;29;20078;-72
2023/07/23 11:18:30;;;;;;;13.85;4.95;;;;;;;;;;4847695;29;20407;-71
2023/07/23 11:21:36;;;;;;;16.70;4.28;;;;;;;;;;4850642;29;20060;-70
2023/07/23 11:25:17;;;;;;;18.02;4.35;;;;;;;;;;4845937;29;20080;-68
2023/07/23 11:28:57;;;;;;;21.35;5.00;;;;;;;;;;4844787;29;20053;-71
2023/07/23 11:32:37;;;;;;;15.48;4.60;;;;;;;;;;4848919;29;20042;-69
2023/07/23 11:36:20;;;;;;;15.73;4.72;;;;;;;;;;4849299;29;20419;-71
2023/07/23 11:40:06;;;;;;;20.80;5.00;;;;;;;;;;4850125;29;20446;-70
2023/07/23 11:43:46;;;;;;;18.27;4.40;;;;;;;;;;4846892;29;20077;-69
2023/07/23 11:47:28;;;;;;;17.38;4.88;;;;;;;;;;4849715;29;20456;-72
2023/07/23 11:51:08;;;;;;;18.17;5.05;;;;;;;;;;4852174;29;20074;-72
2023/07/23 11:54:48;;;;;;;21.38;4.75;;;;;;;;;;4848863;29;20054;-71
2023/07/23 11:57:56;;;;;;;17.45;5.03;;;;;;;;;;4852593;29;20088;-71
2023/07/23 12:00:39;;;;;;;15.67;5.33;;;;;;;;;;4853016;29;20065;-71
2023/07/23 12:03:09;;;;;;;20.33;4.63;;;;;;;;;;4855191;29;20045;-70
2023/07/23 12:05:39;;;;;;;16.02;4.50;;;;;;;;;;4854996;29;20049;-69
2023/07/23 12:08:05;;;;;;;18.30;4.43;;;;;;;;;;4852363;29;20156;-70
2023/07/23 12:10:34;;;;;;;18.00;4.55;;;;;;;;;;4855472;29;20058;-70
2023/07/23 12:13:07;;;;;;;23.52;4.80;;;;;;;;;;4856024;29;20054;-71
2023/07/23 12:15:33;;;;;;;18.58;4.22;;;;;;;;;;4849445;29;20062;-70
2023/07/23 12:18:02;;;;;;;23.63;5.15;;;;;;;;;;4843115;29;20073;-70
2023/07/23 12:20:28;;;;;;;19.40;4.90;;;;;;;;;;4843319;29;20578;-70
2023/07/23 12:22:56;;;;;;;18.65;5.13;;;;;;;;;;4854150;29;20053;-70
2023/07/23 12:25:26;;;;;;;17.92;4.75;;;;;;;;;;4851461;29;20061;-70
2023/07/23 12:27:52;;;;;;;18.42;4.82;;;;;;;;;;4853828;29;20049;-70
2023/07/23 12:30:18;;;;;;;15.02;4.80;;;;;;;;;;4851820;29;20046;-70
2023/07/23 12:32:45;;;;;;;22.83;5.65;;;;;;;;;;4838114;29;20513;-69
2023/07/23 12:35:11;;;;;;;18.85;4.65;;;;;;;;;;4851627;29;20045;-70
2023/07/23 12:37:37;;;;;;;15.45;4.50;;;;;;;;;;4854620;29;20038;-70
2023/07/23 12:40:05;;;;;;;18.63;4.57;;;;;;;;;;4853347;29;20065;-68
2023/07/23 12:42:32;;;;;;;13.98;4.38;;;;;;;;;;4846932;29;20053;-68
2023/07/23 12:45:03;;;;;;;21.23;4.53;;;;;;;;;;4853707;29;20064;-71
2023/07/23 12:47:29;;;;;;;19.45;4.88;;;;;;;;;;4831749;29;20419;-70
2023/07/23 12:50:00;;;;;;;22.70;4.95;;;;;;;;;;4838925;29;20053;-69
2023/07/23 12:52:26;;;;;;;18.55;4.80;;;;;;;;;;4849265;29;20536;-70
2023/07/23 12:54:54;;;;;;;13.32;3.83;;;;;;;;;;4844474;29;20046;-70
2023/07/23 12:57:23;;;;;;;15.15;4.65;;;;;;;;;;4843351;29;20053;-71
2023/07/23 12:59:50;;;;;;;20.02;4.95;;;;;;;;;;4854415;29;20052;-71
2023/07/23 13:02:16;;;;;;;15.95;3.95;;;;;;;;;;4847995;29;20532;-69
2023/07/23 13:04:43;;;;;;;20.40;5.00;;;;;;;;;;4837427;29;20056;-70
2023/07/23 13:07:10;;;;;;;17.58;4.32;;;;;;;;;;4841141;29;20053;-72
2023/07/23 13:09:36;;;;;;;18.40;5.00;;;;;;;;;;4846886;29;20057;-71
2023/07/23 13:12:02;;;;;;;19.73;4.55;;;;;;;;;;4829444;29;20049;-71
2023/07/23 13:14:30;;;;;;;17.70;4.60;;;;;;;;;;4846899;29;20054;-70
2023/07/23 13:16:57;;;;;;;15.77;4.22;;;;;;;;;;4839814;29;20105;-69
2023/07/23 13:19:23;;;;;;;15.93;3.97;;;;;;;;;;4839091;29;20046;-72
2023/07/23 13:21:49;;;;;;;11.82;3.92;;;;;;;;;;4855744;29;20061;-70
2023/07/23 13:24:15;;;;;;;14.75;3.78;;;;;;;;;;4856035;29;20046;-70
2023/07/23 13:26:42;;;;;;;10.77;3.40;;;;;;;;;;4849333;29;20057;-69
2023/07/23 13:29:09;;;;;;;17.10;3.88;;;;;;;;;;4842346;29;20057;-69
2023/07/23 13:31:36;;;;;;;19.40;4.50;;;;;;;;;;4832499;29;20159;-71
2023/07/23 13:34:03;;;;;;;13.63;3.83;;;;;;;;;;4851184;29;20121;-71
2023/07/23 13:36:29;;;;;;;19.05;4.22;;;;;;;;;;4828624;29;20395;-70
2023/07/23 13:38:55;;;;;;;15.85;4.80;;;;;;;;;;4831514;29;20061;-69
2023/07/23 13:41:21;;;;;;;15.23;4.70;;;;;;;;;;4846023;29;20074;-71
2023/07/23 13:43:47;;;;;;;14.48;3.88;;;;;;;;;;4842315;29;20782;-69
2023/07/23 13:46:15;;;;;;;15.20;4.00;;;;;;;;;;4847688;29;20733;-70
2023/07/23 13:48:41;;;;;;;13.63;4.03;;;;;;;;;;4841434;29;20490;-71
2023/07/23 13:51:07;;;;;;;12.85;3.70;;;;;;;;;;4845757;29;20053;-70
2023/07/23 13:53:33;;;;;;;11.45;3.50;;;;;;;;;;4843045;29;20110;-69
2023/07/23 13:55:59;;;;;;;15.10;3.92;;;;;;;;;;4840412;29;20066;-70
2023/07/23 13:58:26;;;;;;;17.42;4.15;;;;;;;;;;4853522;29;20713;-71
2023/07/23 14:00:52;;;;;;;16.35;3.83;;;;;;;;;;4845495;29;20065;-71
2023/07/23 14:03:18;;;;;;;14.52;3.75;;;;;;;;;;4840212;29;20053;-72
2023/07/23 14:05:43;;;;;;;11.63;3.75;;;;;;;;;;4841511;29;20406;-70
2023/07/23 14:08:10;;;;;;;10.43;3.80;;;;;;;;;;4847010;29;20053;-74
2023/07/23 14:10:36;;;;;;;11.40;3.88;;;;;;;;;;4848085;29;20544;-72
2023/07/23 14:13:05;;;;;;;12.30;3.53;;;;;;;;;;4850575;29;20128;-69
2023/07/23 14:15:32;;;;;;;10.95;3.30;;;;;;;;;;4847100;29;20054;-70
2023/07/23 14:17:59;;;;;;;16.45;3.80;;;;;;;;;;4853045;29;20087;-69
2023/07/23 14:20:26;;;;;;;11.25;3.65;;;;;;;;;;4843266;29;20503;-70
2023/07/23 14:22:52;;;;;;;17.38;4.18;;;;;;;;;;4849411;29;20057;-71
2023/07/23 14:25:19;;;;;;;10.10;3.80;;;;;;;;;;4829808;29;20126;-73
2023/07/23 14:27:46;;;;;;;13.07;3.92;;;;;;;;;;4852507;29;20592;-73
2023/07/23 14:30:13;;;;;;;12.85;3.17;;;;;;;;;;4853790;29;20110;-72
2023/07/23 14:32:39;;;;;;;9.68;3.72;;;;;;;;;;4847412;29;20058;-70
2023/07/23 14:35:05;;;;;;;9.65;3.33;;;;;;;;;;4854806;29;20466;-70
2023/07/23 14:37:31;;;;;;;18.60;4.13;;;;;;;;;;4857298;29;20061;-69
2023/07/23 14:39:57;;;;;;;12.52;3.22;;;;;;;;;;4848966;29;20113;-71
2023/07/23 14:42:25;;;;;;;14.07;3.70;;;;;;;;;;4855022;29;20060;-71
2023/07/23 14:44:52;;;;;;;19.60;4.13;;;;;;;;;;4849617;29;20080;-72
2023/07/23 14:47:18;;;;;;;11.65;3.40;;;;;;;;;;4845228;29;20054;-68
2023/07/23 14:49:46;;;;;;;12.35;3.83;;;;;;;;;;4850066;29;20110;-70
2023/07/23 14:52:12;;;;;;;15.27;4.05;;;;;;;;;;4851898;29;20507;-71
2023/07/23 14:54:38;;;;;;;11.52;3.70;;;;;;;;;;4857606;29;20088;-69